Time;durP1;ratioP1;P1;durP2;ratioP2;P2;SDS_P1;SDS_P2;PMS_P1;PMS_P2;Temp;Humidity;BMP_temperature;BMP_pressure;BME280_temperature;BME280_humidity;BME280_pressure;Samples;Min_cycle;Max_cycle;Signal;HPM_P1;HPM_P2
2021/10/13 00:00:21;;;;;;;2.65;1.60;;;7.00;1.00;;;;;;5068636;28;20224;-78
2021/10/13 00:02:48;;;;;;;2.83;1.55;;;7.00;1.00;;;;;;5068014;28;21793;-79
2021/10/13 00:05:15;;;;;;;3.60;1.90;;;7.00;1.00;;;;;;5060108;28;20229;-78
2021/10/13 00:07:43;;;;;;;4.10;1.45;;;7.00;1.00;;;;;;5063839;28;20216;-79
2021/10/13 00:10:10;;;;;;;4.10;1.50;;;6.90;1.00;;;;;;5059095;28;20225;-81
2021/10/13 00:12:36;;;;;;;3.08;1.80;;;6.90;1.00;;;;;;5062615;28;20217;-79
2021/10/13 00:15:05;;;;;;;2.08;1.58;;;6.90;1.00;;;;;;5059789;28;20232;-79
2021/10/13 00:17:32;;;;;;;4.43;1.58;;;6.90;1.00;;;;;;5058177;28;20221;-81
2021/10/13 00:19:58;;;;;;;3.00;1.70;;;6.90;1.00;;;;;;5064477;28;20228;-78
2021/10/13 00:22:25;;;;;;;3.30;1.80;;;6.90;1.00;;;;;;5064775;28;20645;-78
2021/10/13 00:24:53;;;;;;;2.80;1.67;;;6.90;1.00;;;;;;5068051;28;20231;-79
2021/10/13 00:27:20;;;;;;;3.55;2.00;;;6.80;1.00;;;;;;5070026;28;20248;-78
2021/10/13 00:29:46;;;;;;;2.45;1.60;;;6.80;1.00;;;;;;5068885;28;20224;-78
2021/10/13 00:32:13;;;;;;;1.95;1.50;;;6.80;1.00;;;;;;5069719;28;20221;-79
2021/10/13 00:34:40;;;;;;;2.63;1.50;;;6.80;1.00;;;;;;5069261;28;21402;-79
2021/10/13 00:37:07;;;;;;;2.55;1.80;;;6.80;1.00;;;;;;5068970;28;20235;-80
2021/10/13 00:39:33;;;;;;;3.80;1.77;;;6.70;1.00;;;;;;5067139;28;20228;-76
2021/10/13 00:42:01;;;;;;;3.88;2.10;;;6.70;1.00;;;;;;5059945;28;20225;-77
2021/10/13 00:44:28;;;;;;;3.45;1.30;;;6.70;1.00;;;;;;5070163;28;20229;-77
2021/10/13 00:46:54;;;;;;;4.55;1.67;;;6.70;1.00;;;;;;5076071;28;20227;-77
2021/10/13 00:49:21;;;;;;;3.00;1.60;;;6.70;1.00;;;;;;5070401;28;20268;-77
2021/10/13 00:51:48;;;;;;;2.58;1.35;;;6.70;1.00;;;;;;5068214;28;20231;-79
2021/10/13 00:54:14;;;;;;;3.67;1.45;;;6.70;1.00;;;;;;5063092;28;20229;-78
2021/10/13 00:56:41;;;;;;;2.90;1.70;;;6.70;1.00;;;;;;5064041;28;20958;-78
2021/10/13 00:59:09;;;;;;;2.33;2.05;;;6.60;1.00;;;;;;5066972;28;20221;-78
2021/10/13 01:01:44;;;;;;;2.22;2.00;;;6.60;1.00;;;;;;5066642;28;20217;-77
2021/10/13 01:04:24;;;;;;;3.47;2.45;;;6.70;1.00;;;;;;5062819;28;20229;-78
2021/10/13 01:06:59;;;;;;;2.88;1.58;;;6.60;1.00;;;;;;5067099;28;20225;-78
2021/10/13 01:09:27;;;;;;;3.67;1.70;;;6.60;1.00;;;;;;5068709;28;20220;-78
2021/10/13 01:12:15;;;;;;;4.95;2.20;;;6.60;1.00;;;;;;5060276;28;20232;-77
2021/10/13 01:14:50;;;;;;;2.88;1.30;;;6.60;1.00;;;;;;5064599;28;20386;-78
2021/10/13 01:17:26;;;;;;;2.55;1.63;;;6.60;1.00;;;;;;5066397;28;20751;-77
2021/10/13 01:20:02;;;;;;;4.68;1.70;;;6.60;1.00;;;;;;5060584;28;20228;-77
2021/10/13 01:22:58;;;;;;;2.33;1.58;;;6.60;1.00;;;;;;5065605;28;20236;-78
2021/10/13 01:25:39;;;;;;;3.55;1.88;;;6.60;1.00;;;;;;5060362;28;20231;-78
2021/10/13 01:28:10;;;;;;;4.18;1.92;;;6.60;1.00;;;;;;5061658;28;20225;-78
2021/10/13 01:30:42;;;;;;;2.50;1.75;;;6.60;1.00;;;;;;5066652;28;20232;-78
2021/10/13 01:33:19;;;;;;;8.43;1.60;;;6.60;1.00;;;;;;5065247;28;20244;-77
2021/10/13 01:35:51;;;;;;;3.15;1.58;;;6.50;1.00;;;;;;5063727;28;21091;-78
2021/10/13 01:38:20;;;;;;;2.47;1.70;;;6.50;1.00;;;;;;5064644;28;20311;-79
2021/10/13 01:40:48;;;;;;;3.30;1.60;;;6.50;1.00;;;;;;5066137;28;20367;-77
2021/10/13 01:43:18;;;;;;;3.92;1.83;;;6.50;1.00;;;;;;5064572;28;20224;-78
2021/10/13 01:45:48;;;;;;;3.50;1.35;;;6.50;1.00;;;;;;5064780;28;20245;-79
2021/10/13 01:48:15;;;;;;;6.60;1.80;;;6.50;1.00;;;;;;5060463;28;20251;-78
2021/10/13 01:50:46;;;;;;;2.88;1.70;;;6.50;1.00;;;;;;5063089;28;20287;-78
2021/10/13 01:53:14;;;;;;;2.80;1.67;;;6.50;1.00;;;;;;5079531;28;20588;-79
2021/10/13 01:55:43;;;;;;;2.40;1.10;;;6.50;1.00;;;;;;5081097;28;20225;-77
2021/10/13 01:58:11;;;;;;;2.58;1.40;;;6.50;1.00;;;;;;5074397;28;20217;-80
2021/10/13 02:00:41;;;;;;;3.33;1.40;;;6.40;1.00;;;;;;5066225;28;20217;-77
2021/10/13 02:03:09;;;;;;;3.38;1.67;;;6.50;1.00;;;;;;5060903;28;20268;-77
2021/10/13 02:05:38;;;;;;;2.90;1.80;;;6.40;1.00;;;;;;5063547;28;20303;-78
2021/10/13 02:08:06;;;;;;;4.78;1.80;;;6.40;1.00;;;;;;5063323;28;20220;-79
2021/10/13 02:10:35;;;;;;;2.33;1.45;;;6.40;1.00;;;;;;5070812;28;20689;-78
2021/10/13 02:13:03;;;;;;;2.75;1.60;;;6.40;1.00;;;;;;5063520;28;20786;-77
2021/10/13 02:15:31;;;;;;;1.50;1.17;;;6.40;1.00;;;;;;5063075;28;20229;-78
2021/10/13 02:18:00;;;;;;;4.28;1.80;;;6.40;1.00;;;;;;5064357;28;20221;-78
2021/10/13 02:20:29;;;;;;;2.85;1.40;;;6.40;1.00;;;;;;5062781;28;20221;-79
2021/10/13 02:22:58;;;;;;;2.20;1.42;;;6.30;1.00;;;;;;5068319;28;20726;-78
2021/10/13 02:25:34;;;;;;;6.15;2.15;;;6.30;1.00;;;;;;5060222;28;20244;-79
2021/10/13 02:28:04;;;;;;;2.75;1.40;;;6.30;1.00;;;;;;5064188;28;20239;-80
2021/10/13 02:30:32;;;;;;;2.83;1.60;;;6.30;1.00;;;;;;5062808;28;20221;-79
2021/10/13 02:33:00;;;;;;;2.63;1.90;;;6.30;1.00;;;;;;5066115;28;20311;-79
2021/10/13 02:35:27;;;;;;;3.22;1.85;;;6.20;1.00;;;;;;5063141;28;21180;-79
2021/10/13 02:37:53;;;;;;;2.00;1.27;;;6.30;1.00;;;;;;5067056;28;20221;-78
2021/10/13 02:40:20;;;;;;;3.30;1.52;;;6.20;1.00;;;;;;5062551;28;21089;-80
2021/10/13 02:42:47;;;;;;;2.95;1.55;;;6.20;1.00;;;;;;5064301;28;20225;-80
2021/10/13 02:45:14;;;;;;;2.20;1.00;;;6.20;1.00;;;;;;5065247;28;20228;-79
2021/10/13 02:47:46;;;;;;;2.58;1.27;;;6.20;1.00;;;;;;5061463;28;20232;-78
2021/10/13 02:50:22;;;;;;;2.53;1.25;;;6.20;1.00;;;;;;5063853;28;20312;-78
2021/10/13 02:53:05;;;;;;;3.28;1.20;;;6.20;1.00;;;;;;5083411;28;20256;-75
2021/10/13 02:55:34;;;;;;;4.93;1.63;;;6.20;1.00;;;;;;5070782;28;20228;-77
2021/10/13 02:58:06;;;;;;;3.20;1.25;;;6.20;1.00;;;;;;5058292;28;20229;-77
2021/10/13 03:00:36;;;;;;;3.95;1.80;;;6.20;1.00;;;;;;5064383;28;20608;-76
2021/10/13 03:03:06;;;;;;;3.17;1.85;;;6.20;1.00;;;;;;5061619;28;20221;-77
2021/10/13 03:05:37;;;;;;;3.05;1.60;;;6.10;1.00;;;;;;5063398;28;20221;-78
2021/10/13 03:08:07;;;;;;;2.97;2.10;;;6.10;1.00;;;;;;5061794;28;20265;-79
2021/10/13 03:10:35;;;;;;;4.32;2.55;;;6.10;1.00;;;;;;5062183;28;20225;-77
2021/10/13 03:13:04;;;;;;;5.25;2.22;;;6.10;1.00;;;;;;5055853;28;20213;-77
2021/10/13 03:15:33;;;;;;;3.75;1.80;;;6.10;1.00;;;;;;5059770;28;20220;-78
2021/10/13 03:18:01;;;;;;;3.90;2.25;;;6.10;1.00;;;;;;5059130;28;20225;-78
2021/10/13 03:20:29;;;;;;;2.70;1.45;;;6.10;1.00;;;;;;5063023;28;20932;-77
2021/10/13 03:23:00;;;;;;;4.25;1.95;;;6.10;1.00;;;;;;5064219;28;20224;-78
2021/10/13 03:25:29;;;;;;;2.13;1.90;;;6.10;1.00;;;;;;5067140;28;20232;-78
2021/10/13 03:27:56;;;;;;;3.80;1.95;;;6.10;1.00;;;;;;5065881;28;20328;-79
2021/10/13 03:30:24;;;;;;;4.78;2.30;;;6.10;1.00;;;;;;5063379;28;20212;-78
2021/10/13 03:32:51;;;;;;;6.10;2.00;;;6.10;1.00;;;;;;5063124;28;20244;-78
2021/10/13 03:35:22;;;;;;;2.42;1.70;;;6.10;1.00;;;;;;5070048;28;20240;-79
2021/10/13 03:37:49;;;;;;;3.75;2.67;;;6.10;1.00;;;;;;5067647;28;20248;-79
2021/10/13 03:40:18;;;;;;;4.20;2.10;;;6.10;1.00;;;;;;5067367;28;20288;-79
2021/10/13 03:42:44;;;;;;;2.40;1.90;;;6.10;1.00;;;;;;5067080;28;21238;-78
2021/10/13 03:45:13;;;;;;;5.00;2.20;;;6.10;1.00;;;;;;5066461;28;20743;-78
2021/10/13 03:47:40;;;;;;;3.08;2.30;;;6.10;1.00;;;;;;5065531;28;20919;-78
2021/10/13 03:50:10;;;;;;;5.35;2.83;;;6.10;1.00;;;;;;5075313;28;20234;-78
2021/10/13 03:52:37;;;;;;;3.58;3.28;;;6.10;1.00;;;;;;5077257;28;21003;-78
2021/10/13 03:55:04;;;;;;;5.32;3.60;;;6.10;1.00;;;;;;5078362;28;20243;-77
2021/10/13 03:57:32;;;;;;;3.58;3.03;;;6.10;1.00;;;;;;5072315;28;20288;-77
2021/10/13 03:59:59;;;;;;;5.95;4.07;;;6.10;1.00;;;;;;5066450;28;20696;-80
2021/10/13 04:02:26;;;;;;;3.95;3.33;;;6.10;1.00;;;;;;5067282;28;20258;-78
2021/10/13 04:04:52;;;;;;;8.50;5.28;;;6.00;1.00;;;;;;5075988;28;20250;-79
2021/10/13 04:07:19;;;;;;;4.18;3.80;;;6.00;1.00;;;;;;5072127;28;20221;-79
2021/10/13 04:09:45;;;;;;;6.25;4.85;;;6.10;1.00;;;;;;5064967;28;20220;-80
2021/10/13 04:12:12;;;;;;;3.65;3.25;;;6.00;1.00;;;;;;5068747;28;21064;-79
2021/10/13 04:14:40;;;;;;;3.60;3.30;;;6.00;1.00;;;;;;5067470;28;20240;-78
2021/10/13 04:17:07;;;;;;;5.90;4.45;;;6.10;1.00;;;;;;5072351;28;20232;-79
2021/10/13 04:19:33;;;;;;;4.82;3.53;;;6.10;1.00;;;;;;5073313;28;20228;-78
2021/10/13 04:22:00;;;;;;;15.68;6.57;;;6.10;1.00;;;;;;5063671;28;20221;-79
2021/10/13 04:24:27;;;;;;;5.82;4.10;;;6.20;1.00;;;;;;5065696;28;20235;-78
2021/10/13 04:26:54;;;;;;;4.47;3.63;;;6.30;1.00;;;;;;5064991;28;20225;-78
2021/10/13 04:29:21;;;;;;;5.07;3.60;;;6.40;1.00;;;;;;5068853;28;20611;-79
2021/10/13 04:31:49;;;;;;;6.68;4.38;;;6.50;1.00;;;;;;5067606;28;20229;-78
2021/10/13 04:34:16;;;;;;;4.53;4.13;;;6.50;1.00;;;;;;5062829;28;20220;-79
2021/10/13 04:36:43;;;;;;;4.75;4.18;;;6.60;1.00;;;;;;5068456;28;20364;-79
2021/10/13 04:39:10;;;;;;;4.72;3.95;;;6.60;1.00;;;;;;5065366;28;20231;-79
2021/10/13 04:41:36;;;;;;;7.95;5.70;;;6.70;1.00;;;;;;5068334;28;20387;-80
2021/10/13 04:44:04;;;;;;;8.63;5.72;;;6.80;1.00;;;;;;5068750;28;20227;-78
2021/10/13 04:46:30;;;;;;;6.18;5.47;;;6.80;1.00;;;;;;5064394;28;20231;-79
2021/10/13 04:48:58;;;;;;;9.68;8.45;;;6.90;1.00;;;;;;5068967;28;20228;-79
2021/10/13 04:51:25;;;;;;;6.20;5.60;;;6.90;1.00;;;;;;5064702;28;20216;-79
2021/10/13 04:53:51;;;;;;;7.60;6.45;;;7.00;1.00;;;;;;5066468;28;20232;-78
2021/10/13 04:56:18;;;;;;;6.50;5.90;;;7.00;1.00;;;;;;5063456;28;20311;-78
2021/10/13 04:58:45;;;;;;;6.97;5.82;;;7.00;1.00;;;;;;5069793;28;20229;-78
2021/10/13 05:01:11;;;;;;;7.03;4.75;;;7.00;1.00;;;;;;5063787;28;20225;-78
2021/10/13 05:03:38;;;;;;;6.00;5.45;;;7.00;1.00;;;;;;5064207;28;20224;-78
2021/10/13 05:06:06;;;;;;;5.82;5.13;;;7.00;1.00;;;;;;5072247;28;20204;-77
2021/10/13 05:08:33;;;;;;;5.20;4.70;;;7.00;1.00;;;;;;5081823;28;20224;-77
2021/10/13 05:10:59;;;;;;;7.35;5.80;;;7.00;1.00;;;;;;5073532;28;20231;-78
2021/10/13 05:13:26;;;;;;;5.53;4.70;;;7.00;1.00;;;;;;5073055;28;20216;-79
2021/10/13 05:15:54;;;;;;;6.47;4.85;;;7.00;1.00;;;;;;5076478;28;20271;-79
2021/10/13 05:18:21;;;;;;;5.10;4.70;;;7.00;1.00;;;;;;5073511;28;20220;-79
2021/10/13 05:20:48;;;;;;;5.70;4.88;;;7.00;1.00;;;;;;5072706;28;20221;-80
2021/10/13 05:23:16;;;;;;;7.78;4.55;;;7.00;1.00;;;;;;5070785;28;20332;-79
2021/10/13 05:25:42;;;;;;;5.22;4.07;;;7.00;1.00;;;;;;5066520;28;20455;-79
2021/10/13 05:28:09;;;;;;;6.65;5.28;;;6.90;1.00;;;;;;5071586;28;20357;-78
2021/10/13 05:30:36;;;;;;;7.32;4.53;;;6.90;1.00;;;;;;5069227;28;20228;-77
2021/10/13 05:33:03;;;;;;;4.82;4.35;;;6.80;1.00;;;;;;5077183;28;20225;-78
2021/10/13 05:35:30;;;;;;;8.52;5.05;;;6.70;1.00;;;;;;5062532;28;20624;-78
2021/10/13 05:37:57;;;;;;;5.80;5.20;;;6.70;1.00;;;;;;5069951;28;20300;-78
2021/10/13 05:40:25;;;;;;;8.63;7.80;;;6.70;1.00;;;;;;5067608;28;20220;-77
2021/10/13 05:42:52;;;;;;;9.05;7.10;;;6.70;1.00;;;;;;5065581;28;20230;-79
2021/10/13 05:45:19;;;;;;;6.70;6.10;;;6.70;1.00;;;;;;5067656;28;20684;-78
2021/10/13 05:47:45;;;;;;;8.55;6.70;;;6.70;1.00;;;;;;5065329;28;20224;-80
2021/10/13 05:50:12;;;;;;;7.63;6.78;;;6.70;1.00;;;;;;5070456;28;21081;-79
2021/10/13 05:52:39;;;;;;;8.27;6.05;;;6.70;1.00;;;;;;5064557;28;20326;-79
2021/10/13 05:55:06;;;;;;;8.45;6.15;;;6.70;1.00;;;;;;5064286;28;20320;-80
2021/10/13 05:57:34;;;;;;;6.55;5.30;;;6.70;1.00;;;;;;5066112;28;20336;-78
2021/10/13 06:00:02;;;;;;;9.95;5.75;;;6.70;1.00;;;;;;5064898;28;20733;-78
2021/10/13 06:02:29;;;;;;;9.45;5.60;;;6.80;1.00;;;;;;5066129;28;20228;-78
2021/10/13 06:04:55;;;;;;;9.02;5.75;;;6.90;1.00;;;;;;5069630;28;20225;-77
2021/10/13 06:07:22;;;;;;;6.03;4.57;;;7.00;1.00;;;;;;5064905;28;20228;-78
2021/10/13 06:09:49;;;;;;;6.75;5.15;;;7.10;1.00;;;;;;5086110;28;20231;-78
2021/10/13 06:12:15;;;;;;;7.80;5.70;;;7.10;1.00;;;;;;5070843;28;20228;-78
2021/10/13 06:14:43;;;;;;;7.60;4.88;;;7.20;1.00;;;;;;5070716;28;20224;-77
2021/10/13 06:17:10;;;;;;;8.05;4.53;;;7.30;1.00;;;;;;5068697;28;20300;-78
2021/10/13 06:19:37;;;;;;;10.02;7.05;;;7.40;1.00;;;;;;5074594;28;20255;-79
2021/10/13 06:22:03;;;;;;;8.52;5.40;;;7.40;1.00;;;;;;5071125;28;20627;-78
2021/10/13 06:24:30;;;;;;;9.02;5.63;;;7.40;1.00;;;;;;5069224;28;20233;-77
2021/10/13 06:26:57;;;;;;;7.72;5.65;;;7.40;1.00;;;;;;5071222;28;20613;-78
2021/10/13 06:29:23;;;;;;;5.72;4.72;;;7.50;1.00;;;;;;5070258;28;20729;-78
2021/10/13 06:31:51;;;;;;;7.15;5.03;;;7.60;1.00;;;;;;5071944;28;20236;-78
2021/10/13 06:34:18;;;;;;;7.82;4.22;;;7.60;1.00;;;;;;5064264;28;20229;-78
2021/10/13 06:36:44;;;;;;;7.25;4.30;;;7.70;1.00;;;;;;5072954;28;20243;-78
2021/10/13 06:39:11;;;;;;;9.20;5.38;;;7.70;1.00;;;;;;5072831;28;20242;-78
2021/10/13 06:41:38;;;;;;;7.90;5.07;;;7.80;1.00;;;;;;5070921;28;20220;-79
2021/10/13 06:44:05;;;;;;;11.18;4.45;;;7.90;1.00;;;;;;5071024;28;20335;-78
2021/10/13 06:46:32;;;;;;;6.10;4.55;;;8.00;1.00;;;;;;5071584;28;20265;-78
2021/10/13 06:49:01;;;;;;;4.88;4.30;;;8.10;1.00;;;;;;5074181;28;20225;-78
2021/10/13 06:51:28;;;;;;;7.93;4.30;;;8.10;1.00;;;;;;5071983;28;20220;-79
2021/10/13 06:53:54;;;;;;;10.40;4.97;;;8.20;1.00;;;;;;5075572;28;20220;-79
2021/10/13 06:56:21;;;;;;;7.57;4.22;;;8.10;1.00;;;;;;5072355;28;20239;-78
2021/10/13 06:58:48;;;;;;;12.05;4.68;;;8.20;1.00;;;;;;5071642;28;20227;-78
2021/10/13 07:01:14;;;;;;;6.80;4.90;;;8.20;1.00;;;;;;5072887;28;20222;-78
2021/10/13 07:03:41;;;;;;;7.82;4.50;;;8.20;1.00;;;;;;5072865;28;20221;-78
2021/10/13 07:06:09;;;;;;;6.95;4.38;;;8.20;1.00;;;;;;5074195;28;20228;-77
2021/10/13 07:08:35;;;;;;;8.43;4.93;;;8.30;1.00;;;;;;5072751;28;20264;-78
2021/10/13 07:11:02;;;;;;;6.40;4.90;;;8.30;1.00;;;;;;5071130;28;20232;-78
2021/10/13 07:13:29;;;;;;;7.10;4.57;;;8.40;1.00;;;;;;5065822;28;20223;-78
2021/10/13 07:15:55;;;;;;;6.53;4.55;;;8.50;1.00;;;;;;5073456;28;20233;-79
2021/10/13 07:18:22;;;;;;;7.97;4.10;;;8.50;1.00;;;;;;5068166;28;20643;-78
2021/10/13 07:20:48;;;;;;;6.07;4.20;;;8.60;1.00;;;;;;5072120;28;20248;-78
2021/10/13 07:23:16;;;;;;;8.95;6.10;;;8.70;1.00;;;;;;5069427;28;20226;-78
2021/10/13 07:25:43;;;;;;;7.55;4.90;;;8.70;1.00;;;;;;5071588;28;20312;-79
2021/10/13 07:28:11;;;;;;;6.65;5.55;;;8.80;1.00;;;;;;5072450;28;20234;-78
2021/10/13 07:30:38;;;;;;;7.70;5.32;;;8.80;1.00;;;;;;5067990;28;20497;-79
2021/10/13 07:33:05;;;;;;;8.27;5.97;;;8.90;1.00;;;;;;5070290;28;20222;-78
2021/10/13 07:35:33;;;;;;;6.47;4.73;;;9.00;1.00;;;;;;5068118;28;20546;-78
2021/10/13 07:38:00;;;;;;;10.07;5.45;;;9.10;1.00;;;;;;5074787;28;20444;-78
2021/10/13 07:40:28;;;;;;;8.37;4.50;;;9.20;1.00;;;;;;5068193;28;20224;-77
2021/10/13 07:42:55;;;;;;;7.25;4.50;;;9.30;1.00;;;;;;5072912;28;20447;-77
2021/10/13 07:45:22;;;;;;;9.00;4.57;;;9.40;1.00;;;;;;5070908;28;20232;-78
2021/10/13 07:47:49;;;;;;;6.72;4.82;;;9.50;1.00;;;;;;5067540;28;20429;-77
2021/10/13 07:50:16;;;;;;;7.43;5.25;;;9.50;1.00;;;;;;5072017;28;20230;-77
2021/10/13 07:52:43;;;;;;;7.13;6.10;;;9.50;1.00;;;;;;5069154;28;20216;-78
2021/10/13 07:55:10;;;;;;;5.40;4.30;;;9.50;1.00;;;;;;5069343;28;20232;-77
2021/10/13 07:57:38;;;;;;;10.30;4.93;;;9.60;1.00;;;;;;5076122;28;20274;-77
2021/10/13 08:00:06;;;;;;;6.27;5.47;;;9.60;1.00;;;;;;5072259;28;20459;-77
2021/10/13 08:02:32;;;;;;;8.43;4.80;;;9.70;1.00;;;;;;5069908;28;20460;-77
2021/10/13 08:04:59;;;;;;;7.30;4.30;;;9.70;1.00;;;;;;5076462;28;20423;-77
2021/10/13 08:07:26;;;;;;;7.63;5.45;;;9.80;1.00;;;;;;5075748;28;20405;-78
2021/10/13 08:09:52;;;;;;;9.83;5.07;;;9.90;1.00;;;;;;5073880;28;20249;-78
2021/10/13 08:12:19;;;;;;;8.00;5.40;;;9.90;1.00;;;;;;5069858;28;20471;-78
2021/10/13 08:14:47;;;;;;;11.23;5.80;;;9.80;1.00;;;;;;5071770;28;20466;-78
2021/10/13 08:17:14;;;;;;;8.77;6.20;;;9.80;1.00;;;;;;5067408;28;20457;-79
2021/10/13 08:19:40;;;;;;;8.43;5.70;;;9.70;1.00;;;;;;5072606;28;20238;-78
2021/10/13 08:22:07;;;;;;;8.47;6.53;;;9.80;1.00;;;;;;5067946;28;21047;-77
2021/10/13 08:24:34;;;;;;;9.07;6.23;;;9.90;1.00;;;;;;5069164;28;20445;-79
2021/10/13 08:27:02;;;;;;;9.95;6.80;;;10.20;1.00;;;;;;5074328;28;20440;-78
2021/10/13 08:29:29;;;;;;;9.23;5.53;;;11.20;1.00;;;;;;5069561;28;20260;-77
2021/10/13 08:31:57;;;;;;;6.97;5.40;;;12.20;1.00;;;;;;5072267;28;20440;-77
2021/10/13 08:34:23;;;;;;;6.27;4.90;;;12.80;1.00;;;;;;5066365;28;20470;-78
2021/10/13 08:36:50;;;;;;;7.70;5.37;;;13.60;1.00;;;;;;5085750;28;20439;-77
2021/10/13 08:39:17;;;;;;;6.90;5.53;;;14.90;1.00;;;;;;5070813;28;20438;-77
2021/10/13 08:41:44;;;;;;;7.30;5.80;;;15.90;1.00;;;;;;5075007;28;20454;-78
2021/10/13 08:44:12;;;;;;;8.67;5.23;;;16.90;1.00;;;;;;5069227;28;20441;-78
2021/10/13 08:46:39;;;;;;;7.70;5.90;;;18.00;1.00;;;;;;5072922;28;21040;-78
2021/10/13 08:49:07;;;;;;;7.23;4.43;;;18.80;1.00;;;;;;5066694;28;20489;-77
2021/10/13 08:51:34;;;;;;;7.27;4.90;;;19.50;1.00;;;;;;5070990;28;20616;-78
2021/10/13 08:54:01;;;;;;;6.73;4.40;;;20.00;1.00;;;;;;5069069;28;20459;-77
2021/10/13 08:56:28;;;;;;;6.27;4.60;;;19.90;1.00;;;;;;5069663;28;20524;-78
2021/10/13 08:58:55;;;;;;;6.23;5.33;;;19.80;1.00;;;;;;5073791;28;20437;-79
2021/10/13 09:01:21;;;;;;;6.80;4.93;;;19.20;1.00;;;;;;5071498;28;20553;-78
2021/10/13 09:03:55;;;;;;;6.70;5.00;;;19.20;1.00;;;;;;5066567;28;20466;-79
2021/10/13 09:06:25;;;;;;;6.45;4.32;;;19.40;1.00;;;;;;5066597;28;21072;-77
2021/10/13 09:08:56;;;;;;;5.00;4.27;;;18.90;1.00;;;;;;5079686;28;20247;-78
2021/10/13 09:11:34;;;;;;;6.43;4.53;;;18.90;1.00;;;;;;5073157;28;20495;-77
2021/10/13 09:14:09;;;;;;;7.83;5.10;;;19.50;1.00;;;;;;5074514;28;21221;-77
2021/10/13 09:16:55;;;;;;;6.23;4.23;;;19.20;1.00;;;;;;5078273;28;20411;-77
2021/10/13 09:19:24;;;;;;;7.03;3.47;;;18.80;1.00;;;;;;5077057;28;20467;-77
2021/10/13 09:21:54;;;;;;;7.20;4.00;;;18.20;1.00;;;;;;5074323;28;20447;-79
2021/10/13 09:24:22;;;;;;;4.73;4.20;;;17.10;1.00;;;;;;5076389;28;20486;-79
2021/10/13 09:26:48;;;;;;;3.90;3.20;;;16.20;1.00;;;;;;5067077;28;20462;-77
2021/10/13 09:29:15;;;;;;;6.13;3.80;;;15.40;1.00;;;;;;5076367;28;20449;-77
2021/10/13 09:31:42;;;;;;;5.20;3.83;;;14.60;1.00;;;;;;5070464;28;20452;-77
2021/10/13 09:34:11;;;;;;;5.87;4.00;;;14.30;1.00;;;;;;5072565;28;20495;-78
2021/10/13 09:36:40;;;;;;;4.47;3.77;;;14.00;1.00;;;;;;5076519;28;21707;-78
2021/10/13 09:39:10;;;;;;;7.13;4.30;;;13.70;1.00;;;;;;5070570;28;20448;-78
2021/10/13 09:42:01;;;;;;;10.00;5.30;;;13.40;1.00;;;;;;5077561;28;21292;-78
2021/10/13 09:44:29;;;;;;;4.83;3.77;;;13.10;1.00;;;;;;5071328;28;20590;-78
2021/10/13 09:47:00;;;;;;;4.90;3.70;;;12.80;1.00;;;;;;5074472;28;20557;-79
2021/10/13 09:49:34;;;;;;;7.60;5.00;;;12.60;1.00;;;;;;5074883;28;20452;-77
2021/10/13 09:52:07;;;;;;;4.73;3.70;;;12.50;1.00;;;;;;5078480;28;20475;-77
2021/10/13 09:54:36;;;;;;;6.33;4.27;;;12.50;1.00;;;;;;5070321;28;20550;-77
2021/10/13 09:57:34;;;;;;;5.97;4.03;;;12.50;1.00;;;;;;5079145;28;20431;-75
2021/10/13 10:00:11;;;;;;;7.30;4.10;;;12.80;1.00;;;;;;5030972;28;20468;-75
2021/10/13 10:02:39;;;;;;;4.57;3.80;;;13.60;1.00;;;;;;5063381;28;20471;-76
2021/10/13 10:05:09;;;;;;;6.30;3.50;;;15.20;1.00;;;;;;5063540;28;20504;-77
2021/10/13 10:07:42;;;;;;;5.93;3.87;;;16.20;1.00;;;;;;5070779;28;20500;-76
2021/10/13 10:10:13;;;;;;;3.70;3.07;;;16.10;1.00;;;;;;5069728;28;20436;-77
2021/10/13 10:13:07;;;;;;;6.10;4.50;;;15.40;1.00;;;;;;5070205;28;20554;-78
2021/10/13 10:15:36;;;;;;;5.43;3.30;;;14.80;1.00;;;;;;5041434;28;23110;-76
2021/10/13 10:18:24;;;;;;;5.50;3.67;;;14.50;1.00;;;;;;5067172;28;20459;-77
2021/10/13 10:20:52;;;;;;;6.60;3.73;;;14.20;1.00;;;;;;5068936;28;20474;-76
2021/10/13 10:23:31;;;;;;;4.40;2.87;;;14.20;1.00;;;;;;5069641;28;20455;-76
2021/10/13 10:26:01;;;;;;;5.17;3.37;;;14.60;1.00;;;;;;5069372;28;20456;-77
2021/10/13 10:28:54;;;;;;;6.50;4.27;;;14.80;1.00;;;;;;5057104;28;21068;-75
2021/10/13 10:31:38;;;;;;;5.17;3.03;;;15.20;1.00;;;;;;5064654;28;20452;-77
2021/10/13 10:34:16;;;;;;;3.40;2.70;;;15.80;1.00;;;;;;5068171;28;21323;-76
2021/10/13 10:37:12;;;;;;;4.43;2.87;;;15.60;1.00;;;;;;5073211;28;20557;-77
2021/10/13 10:39:57;;;;;;;3.83;2.50;;;16.10;1.00;;;;;;5079556;28;20505;-77
2021/10/13 10:42:58;;;;;;;2.90;2.50;;;17.00;1.00;;;;;;5066424;28;20462;-76
2021/10/13 10:45:27;;;;;;;3.87;2.67;;;17.80;1.00;;;;;;4988175;28;20463;-75
2021/10/13 10:47:57;;;;;;;4.87;3.50;;;17.90;1.00;;;;;;5051415;28;20458;-77
2021/10/13 10:50:36;;;;;;;4.77;3.10;;;18.40;1.00;;;;;;5063973;28;20454;-76
2021/10/13 10:53:20;;;;;;;4.87;3.57;;;18.90;1.00;;;;;;5069174;28;20457;-75
2021/10/13 10:55:48;;;;;;;5.20;3.43;;;18.30;1.00;;;;;;5073879;28;20885;-76
2021/10/13 10:58:19;;;;;;;9.00;4.93;;;17.30;1.00;;;;;;5067333;28;20460;-76
2021/10/13 11:00:46;;;;;;;4.80;3.20;;;16.30;1.00;;;;;;5062837;28;20457;-74
2021/10/13 11:03:21;;;;;;;6.10;3.27;;;15.80;1.00;;;;;;5066416;28;20458;-74
2021/10/13 11:05:48;;;;;;;4.93;3.30;;;15.30;1.00;;;;;;5066505;28;20456;-76
2021/10/13 11:08:15;;;;;;;5.90;3.73;;;15.10;1.00;;;;;;5076288;28;20457;-77
2021/10/13 11:10:43;;;;;;;5.90;3.30;;;15.90;1.00;;;;;;5072433;28;20452;-79
2021/10/13 11:13:10;;;;;;;5.40;3.80;;;17.00;1.00;;;;;;5069715;28;20440;-78
2021/10/13 11:15:40;;;;;;;4.60;3.20;;;18.40;1.00;;;;;;5066662;28;21045;-77
2021/10/13 11:18:15;;;;;;;4.20;3.00;;;20.70;1.00;;;;;;5067936;28;20487;-77
2021/10/13 11:20:42;;;;;;;3.83;2.70;;;22.90;1.00;;;;;;5065082;28;20520;-78
2021/10/13 11:23:11;;;;;;;8.60;3.47;;;23.90;1.00;;;;;;5069800;28;20449;-76
2021/10/13 11:25:38;;;;;;;4.30;3.60;;;24.60;1.00;;;;;;5071427;28;20599;-78
2021/10/13 11:28:07;;;;;;;5.47;3.83;;;24.60;1.00;;;;;;5063833;28;20454;-77
2021/10/13 11:30:39;;;;;;;3.20;2.60;;;24.50;1.00;;;;;;5071021;28;20449;-77
2021/10/13 11:33:07;;;;;;;4.40;3.10;;;24.70;1.00;;;;;;5066034;28;20452;-77
2021/10/13 11:35:34;;;;;;;4.90;2.70;;;25.10;1.00;;;;;;5065079;28;20490;-78
2021/10/13 11:38:00;;;;;;;5.00;3.13;;;25.20;1.00;;;;;;5064583;28;20469;-78
2021/10/13 11:40:27;;;;;;;3.43;2.50;;;25.80;1.00;;;;;;5072018;28;21336;-78
2021/10/13 11:42:56;;;;;;;5.50;2.80;;;26.80;1.00;;;;;;5067204;28;20979;-78
2021/10/13 11:45:23;;;;;;;2.77;2.20;;;27.60;1.00;;;;;;5068990;28;21346;-78
2021/10/13 11:47:51;;;;;;;3.17;1.80;;;28.20;1.00;;;;;;5057546;28;21385;-78
2021/10/13 11:50:19;;;;;;;5.17;2.00;;;28.30;1.00;;;;;;5061926;28;20456;-78
2021/10/13 11:52:52;;;;;;;3.13;1.83;;;28.00;1.00;;;;;;5065803;28;20635;-77
2021/10/13 11:55:20;;;;;;;5.20;2.50;;;27.30;1.00;;;;;;5069565;28;20463;-78
2021/10/13 11:57:52;;;;;;;2.30;1.53;;;26.90;1.00;;;;;;5079046;28;21020;-77
2021/10/13 12:00:20;;;;;;;6.73;3.47;;;25.90;1.00;;;;;;5068731;28;21010;-77
2021/10/13 12:03:03;;;;;;;3.33;2.33;;;24.90;1.00;;;;;;5068056;28;20418;-79
2021/10/13 12:05:34;;;;;;;3.03;2.37;;;25.80;1.00;;;;;;5068439;28;20523;-80
2021/10/13 12:08:04;;;;;;;3.73;2.10;;;26.70;1.00;;;;;;5069475;28;20476;-79
2021/10/13 12:10:35;;;;;;;3.00;2.30;;;26.60;1.00;;;;;;5067246;28;20439;-78
2021/10/13 12:13:04;;;;;;;6.77;2.53;;;24.90;1.00;;;;;;5072168;28;20447;-78
2021/10/13 12:15:31;;;;;;;3.33;2.17;;;25.00;1.00;;;;;;5075687;28;20462;-77
2021/10/13 12:18:19;;;;;;;3.53;1.93;;;25.30;1.00;;;;;;5072242;28;20463;-78
2021/10/13 12:20:48;;;;;;;4.00;2.30;;;24.80;1.00;;;;;;5070276;28;20460;-77
2021/10/13 12:23:16;;;;;;;4.93;2.37;;;23.20;1.00;;;;;;5068524;28;20464;-77
2021/10/13 12:25:44;;;;;;;4.30;3.17;;;22.20;1.00;;;;;;5080338;28;21131;-77
2021/10/13 12:28:16;;;;;;;3.07;2.43;;;20.90;1.00;;;;;;5071688;28;20419;-76
2021/10/13 12:30:44;;;;;;;6.07;2.90;;;19.80;1.00;;;;;;5076972;28;20443;-77
2021/10/13 12:33:15;;;;;;;6.30;3.40;;;18.90;1.00;;;;;;5071877;28;21096;-77
2021/10/13 12:35:44;;;;;;;2.73;2.10;;;18.30;1.00;;;;;;5077598;28;20472;-77
2021/10/13 12:38:14;;;;;;;3.30;2.40;;;17.60;1.00;;;;;;5073003;28;20436;-77
2021/10/13 12:40:42;;;;;;;3.03;2.57;;;17.10;1.00;;;;;;5083838;28;20441;-78
2021/10/13 12:43:22;;;;;;;9.17;3.63;;;16.80;1.00;;;;;;5075279;28;20475;-78
2021/10/13 12:45:49;;;;;;;3.30;2.70;;;17.00;1.00;;;;;;5080628;28;20496;-78
2021/10/13 12:48:18;;;;;;;3.10;2.67;;;16.70;1.00;;;;;;5076738;28;20592;-78
2021/10/13 12:51:07;;;;;;;3.90;2.70;;;16.30;1.00;;;;;;5074435;28;20507;-77
2021/10/13 12:53:34;;;;;;;2.93;2.53;;;15.80;1.00;;;;;;5065757;28;21577;-78
2021/10/13 12:56:01;;;;;;;3.77;2.83;;;15.60;1.00;;;;;;5078566;28;20432;-77
2021/10/13 12:58:28;;;;;;;5.20;3.43;;;15.40;1.00;;;;;;5074097;28;20444;-77
2021/10/13 13:00:54;;;;;;;4.67;3.60;;;15.30;1.00;;;;;;5073846;28;20460;-79
2021/10/13 13:03:22;;;;;;;5.63;2.67;;;15.40;1.00;;;;;;5073311;28;20463;-78
2021/10/13 13:05:50;;;;;;;4.00;3.00;;;15.30;1.00;;;;;;5076245;28;21549;-78
2021/10/13 13:08:18;;;;;;;3.90;3.47;;;15.20;1.00;;;;;;5075289;28;20436;-76
2021/10/13 13:10:45;;;;;;;7.50;3.07;;;15.40;1.00;;;;;;5076238;28;21807;-78
2021/10/13 13:13:11;;;;;;;3.83;3.07;;;15.60;1.00;;;;;;5070515;28;20455;-78